Time;durP1;ratioP1;P1;durP2;ratioP2;P2;SDS_P1;SDS_P2;PMS_P1;PMS_P2;Temp;Humidity;BMP_temperature;BMP_pressure;BME280_temperature;BME280_humidity;BME280_pressure;Samples;Min_cycle;Max_cycle;Signal;HPM_P1;HPM_P2
2022/06/22 00:01:51;;;;;;;9.23;4.97;;;16.60;99.90;;;;;;5083070;28;20040;-58
2022/06/22 00:04:26;;;;;;;11.52;5.00;;;16.60;99.90;;;;;;5076331;28;20044;-58
2022/06/22 00:07:20;;;;;;;10.73;5.22;;;16.60;99.90;;;;;;5069831;28;20060;-59
2022/06/22 00:09:47;;;;;;;9.85;5.63;;;16.60;99.90;;;;;;5076610;28;20143;-59
2022/06/22 00:12:23;;;;;;;9.20;4.85;;;16.60;99.90;;;;;;5074693;28;20411;-59
2022/06/22 00:14:52;;;;;;;11.77;5.05;;;16.70;99.90;;;;;;5068670;28;20502;-56
2022/06/22 00:17:21;;;;;;;9.98;4.70;;;16.70;99.90;;;;;;5082774;28;20110;-60
2022/06/22 00:19:48;;;;;;;9.20;4.95;;;16.60;99.90;;;;;;5075633;28;20068;-60
2022/06/22 00:22:24;;;;;;;12.57;6.20;;;16.50;99.90;;;;;;5075208;28;20064;-59
2022/06/22 00:25:13;;;;;;;15.75;6.03;;;16.50;99.90;;;;;;5078888;28;20547;-59
2022/06/22 00:27:40;;;;;;;13.05;5.13;;;16.50;99.90;;;;;;5069903;28;20587;-59
2022/06/22 00:30:13;;;;;;;12.93;5.03;;;16.40;99.90;;;;;;5085428;28;20563;-58
2022/06/22 00:32:40;;;;;;;8.98;5.38;;;16.40;99.90;;;;;;5075240;28;20072;-59
2022/06/22 00:35:35;;;;;;;8.57;5.60;;;16.40;99.90;;;;;;5082274;28;20068;-58
2022/06/22 00:38:02;;;;;;;9.27;5.45;;;16.30;99.90;;;;;;5081755;28;20127;-58
2022/06/22 00:40:29;;;;;;;11.65;5.45;;;16.30;99.90;;;;;;5076146;28;20471;-58
2022/06/22 00:42:56;;;;;;;9.73;5.47;;;16.30;99.90;;;;;;5083856;28;20131;-57
2022/06/22 00:45:25;;;;;;;8.40;5.03;;;16.30;99.90;;;;;;5073096;28;20040;-59
2022/06/22 00:47:57;;;;;;;12.20;5.43;;;16.30;99.90;;;;;;4733673;28;10000241;-59
2022/06/22 00:50:26;;;;;;;11.45;5.28;;;16.30;99.90;;;;;;5077881;28;20490;-59
2022/06/22 00:53:05;;;;;;;8.52;5.22;;;16.20;99.90;;;;;;5078393;28;20044;-59
2022/06/22 00:55:38;;;;;;;13.95;6.40;;;16.10;99.90;;;;;;5073161;28;20474;-59
2022/06/22 00:58:07;;;;;;;8.38;5.72;;;16.10;99.90;;;;;;5077082;28;20079;-58
2022/06/22 01:00:39;;;;;;;14.38;6.25;;;16.10;99.90;;;;;;5084130;28;20562;-59
2022/06/22 01:03:06;;;;;;;11.70;6.15;;;16.00;99.90;;;;;;5061884;28;20098;-59
2022/06/22 01:06:00;;;;;;;9.45;5.80;;;16.00;99.90;;;;;;5074123;28;20118;-58
2022/06/22 01:08:27;;;;;;;10.18;5.40;;;16.00;99.90;;;;;;5068663;28;20372;-58
2022/06/22 01:10:59;;;;;;;10.50;6.30;;;16.00;99.90;;;;;;5083889;28;20051;-58
2022/06/22 01:13:44;;;;;;;11.25;6.50;;;15.90;99.90;;;;;;5078974;28;20559;-58
2022/06/22 01:16:17;;;;;;;11.70;6.10;;;15.90;99.90;;;;;;5081863;28;20075;-58
2022/06/22 01:18:47;;;;;;;8.13;5.40;;;15.80;99.90;;;;;;5068266;28;20059;-58
2022/06/22 01:21:23;;;;;;;12.50;7.13;;;15.70;99.90;;;;;;5072424;28;20110;-58
2022/06/22 01:23:59;;;;;;;12.77;6.93;;;15.70;99.90;;;;;;5086213;28;20138;-59
2022/06/22 01:26:35;;;;;;;13.63;6.88;;;15.70;99.90;;;;;;5083102;28;20090;-57
2022/06/22 01:29:13;;;;;;;13.38;6.95;;;15.60;99.90;;;;;;5078478;28;20472;-58
2022/06/22 01:31:59;;;;;;;9.00;6.35;;;15.60;99.90;;;;;;5080057;28;20099;-59
2022/06/22 01:34:40;;;;;;;18.20;6.07;;;15.60;99.90;;;;;;5075378;28;20072;-58
2022/06/22 01:37:11;;;;;;;15.27;6.38;;;15.60;99.90;;;;;;5060621;28;20324;-58
2022/06/22 01:39:38;;;;;;;10.68;6.30;;;15.60;99.90;;;;;;5069701;28;20080;-59
2022/06/22 01:42:21;;;;;;;13.13;7.03;;;15.60;99.90;;;;;;5082964;28;20051;-58
2022/06/22 01:44:55;;;;;;;14.90;6.90;;;15.50;99.90;;;;;;5075106;28;20126;-59
2022/06/22 01:47:49;;;;;;;9.23;5.72;;;15.40;99.90;;;;;;5082752;28;20507;-58
2022/06/22 01:50:24;;;;;;;12.48;7.05;;;15.40;99.90;;;;;;5071575;28;20127;-60
2022/06/22 01:52:51;;;;;;;10.70;6.57;;;15.30;99.90;;;;;;5079594;28;20042;-58
2022/06/22 01:55:29;;;;;;;12.43;7.28;;;15.20;99.90;;;;;;5081782;28;20051;-60
2022/06/22 01:58:21;;;;;;;8.73;6.65;;;15.20;99.90;;;;;;5073364;28;20122;-57
2022/06/22 02:01:04;;;;;;;15.23;6.60;;;15.10;99.90;;;;;;5070948;28;20036;-58
2022/06/22 02:03:37;;;;;;;12.00;5.68;;;15.00;99.90;;;;;;5076526;28;20422;-56
2022/06/22 02:09:02;;;;;;;11.20;6.03;;;15.00;99.90;;;;;;5074639;28;20132;-59
2022/06/22 02:11:31;;;;;;;10.07;5.57;;;15.00;99.90;;;;;;5066604;28;20422;-58
2022/06/22 02:14:02;;;;;;;10.43;6.00;;;15.00;99.90;;;;;;5077672;28;20136;-57
2022/06/22 02:16:35;;;;;;;10.20;5.82;;;15.00;99.90;;;;;;5073773;28;20558;-57
2022/06/22 02:19:02;;;;;;;15.80;5.95;;;15.00;99.90;;;;;;5076724;28;20576;-59
2022/06/22 02:21:37;;;;;;;15.07;5.50;;;14.90;99.90;;;;;;5081757;28;20079;-57
2022/06/22 02:24:28;;;;;;;15.60;6.32;;;14.90;99.90;;;;;;5076225;28;20127;-58
2022/06/22 02:26:57;;;;;;;11.13;5.20;;;14.90;99.90;;;;;;5072807;28;20094;-60
2022/06/22 02:29:30;;;;;;;15.40;5.95;;;14.80;99.90;;;;;;5086683;28;20181;-58
2022/06/22 02:32:00;;;;;;;11.15;6.80;;;14.70;99.90;;;;;;5072781;28;20078;-57
2022/06/22 02:34:27;;;;;;;11.40;6.00;;;14.70;99.90;;;;;;5076458;28;20093;-59
2022/06/22 02:36:54;;;;;;;8.55;6.05;;;14.70;99.90;;;;;;5080936;28;20120;-62
2022/06/22 02:39:22;;;;;;;11.07;5.85;;;14.60;99.90;;;;;;5078858;28;20114;-58
2022/06/22 02:44:39;;;;;;;9.80;5.85;;;14.70;99.90;;;;;;5077664;28;20127;-58
2022/06/22 02:47:26;;;;;;;12.45;7.20;;;14.60;99.90;;;;;;5075711;28;20079;-58
2022/06/22 02:50:19;;;;;;;16.55;7.40;;;14.50;99.90;;;;;;5078913;28;20187;-58
2022/06/22 02:52:55;;;;;;;13.13;6.75;;;14.50;99.90;;;;;;5073976;28;20491;-57
2022/06/22 02:55:23;;;;;;;9.98;6.82;;;14.50;99.90;;;;;;5080776;28;20183;-58
2022/06/22 02:57:53;;;;;;;11.50;6.38;;;14.50;99.90;;;;;;5072718;28;20503;-58
2022/06/22 03:00:22;;;;;;;12.30;5.82;;;14.30;99.90;;;;;;5086353;28;20560;-58
2022/06/22 03:02:51;;;;;;;10.80;5.78;;;14.10;99.90;;;;;;5076664;28;20476;-58
2022/06/22 03:05:18;;;;;;;17.35;5.95;;;13.90;99.90;;;;;;5083373;28;20124;-58
2022/06/22 03:07:48;;;;;;;14.80;6.05;;;13.80;99.90;;;;;;5067904;28;20044;-58
2022/06/22 03:10:24;;;;;;;12.90;6.53;;;14.00;99.90;;;;;;5083677;28;20131;-58
2022/06/22 03:12:51;;;;;;;11.52;6.63;;;14.00;99.90;;;;;;5085633;28;20079;-57
2022/06/22 03:15:19;;;;;;;10.95;5.88;;;14.00;99.90;;;;;;5085141;28;20044;-58
2022/06/22 03:17:46;;;;;;;12.80;6.65;;;14.20;99.90;;;;;;5063518;28;20044;-58
2022/06/22 03:20:15;;;;;;;11.85;7.15;;;14.30;99.90;;;;;;5073481;28;20491;-57
2022/06/22 03:22:50;;;;;;;11.60;7.15;;;14.30;99.90;;;;;;5080188;28;20462;-58
2022/06/22 03:25:52;;;;;;;10.02;6.22;;;14.40;99.90;;;;;;5081485;28;20090;-58
2022/06/22 03:28:24;;;;;;;12.98;7.05;;;14.30;99.90;;;;;;5058732;28;20040;-58
2022/06/22 03:30:52;;;;;;;14.10;6.75;;;14.20;99.90;;;;;;5083571;28;20076;-58
2022/06/22 03:33:27;;;;;;;14.55;7.40;;;14.20;99.90;;;;;;5081067;28;20047;-58
2022/06/22 03:35:56;;;;;;;10.32;6.57;;;14.20;99.90;;;;;;5071464;28;20044;-58
2022/06/22 03:38:28;;;;;;;13.70;7.47;;;14.20;99.90;;;;;;5088143;28;20079;-58
2022/06/22 03:41:09;;;;;;;13.70;7.10;;;14.20;99.90;;;;;;5070706;28;20078;-57
2022/06/22 03:43:51;;;;;;;12.38;6.55;;;14.20;99.90;;;;;;5087898;28;20086;-57
2022/06/22 03:46:22;;;;;;;14.38;8.00;;;14.10;99.90;;;;;;5074196;28;20119;-58
2022/06/22 03:49:15;;;;;;;12.52;7.15;;;13.90;99.90;;;;;;5078921;28;21135;-57
2022/06/22 03:51:57;;;;;;;11.50;6.97;;;13.90;99.90;;;;;;5084025;28;20080;-59
2022/06/22 03:54:37;;;;;;;14.82;7.07;;;13.90;99.90;;;;;;5083476;28;20079;-58
2022/06/22 03:57:07;;;;;;;10.70;6.93;;;13.90;99.90;;;;;;5064728;28;20134;-57
2022/06/22 03:59:38;;;;;;;12.80;8.52;;;13.90;99.90;;;;;;5087228;28;20494;-57
2022/06/22 04:02:05;;;;;;;12.23;7.65;;;13.80;99.90;;;;;;5063156;28;20044;-58
2022/06/22 04:04:32;;;;;;;13.20;7.15;;;13.90;99.90;;;;;;5085251;28;20052;-58
2022/06/22 04:06:59;;;;;;;11.70;6.57;;;13.90;99.90;;;;;;5084276;28;20068;-58
2022/06/22 04:09:26;;;;;;;13.38;6.90;;;13.90;99.90;;;;;;5079495;28;20400;-58
2022/06/22 04:12:27;;;;;;;14.85;7.28;;;13.80;99.90;;;;;;5073562;28;20695;-58
2022/06/22 04:14:55;;;;;;;13.55;6.43;;;13.80;99.90;;;;;;5075527;28;20306;-58
2022/06/22 04:17:39;;;;;;;14.77;5.88;;;13.70;99.90;;;;;;5085092;28;20044;-58
2022/06/22 04:20:49;;;;;;;11.93;5.95;;;13.60;99.90;;;;;;5082543;28;20086;-56
2022/06/22 04:23:23;;;;;;;13.50;6.60;;;13.70;99.90;;;;;;5073395;28;20069;-58
2022/06/22 04:25:50;;;;;;;10.30;5.22;;;13.60;99.90;;;;;;5072301;28;20127;-57
2022/06/22 04:28:16;;;;;;;7.90;5.68;;;13.70;99.90;;;;;;5079696;28;20141;-58
2022/06/22 04:30:46;;;;;;;12.80;6.68;;;13.70;99.90;;;;;;5068580;28;20079;-58
2022/06/22 04:33:48;;;;;;;10.55;6.45;;;13.70;99.90;;;;;;5081021;28;20083;-59
2022/06/22 04:36:24;;;;;;;13.23;7.25;;;13.80;99.90;;;;;;5083311;28;20041;-57
2022/06/22 04:39:00;;;;;;;11.52;7.43;;;13.90;99.90;;;;;;5067090;28;20054;-59
2022/06/22 04:41:30;;;;;;;16.27;8.43;;;13.90;99.90;;;;;;5057154;28;20091;-60
2022/06/22 04:44:00;;;;;;;18.13;7.95;;;13.80;99.90;;;;;;5079690;28;20329;-59
2022/06/22 04:46:34;;;;;;;10.45;7.43;;;13.80;99.90;;;;;;5071336;28;20084;-58
2022/06/22 04:49:05;;;;;;;10.35;7.30;;;13.70;99.90;;;;;;5084002;28;20071;-59
2022/06/22 04:51:34;;;;;;;19.15;8.13;;;13.70;99.90;;;;;;5072273;28;20114;-57
2022/06/22 04:54:31;;;;;;;14.80;7.57;;;13.70;99.90;;;;;;5068169;28;20062;-58
2022/06/22 04:57:01;;;;;;;14.35;8.25;;;13.80;99.90;;;;;;5077289;28;20127;-60
2022/06/22 04:59:28;;;;;;;18.48;8.57;;;13.90;99.90;;;;;;5077223;28;20052;-59
2022/06/22 05:02:05;;;;;;;12.88;8.27;;;14.00;99.90;;;;;;5082756;28;20095;-58
2022/06/22 05:04:38;;;;;;;17.08;9.30;;;14.20;99.90;;;;;;5077393;28;20070;-59
2022/06/22 05:07:27;;;;;;;13.63;8.88;;;14.20;99.90;;;;;;5070120;28;20056;-58
2022/06/22 05:10:05;;;;;;;17.38;8.75;;;14.20;99.90;;;;;;5082954;28;20416;-59
2022/06/22 05:12:44;;;;;;;17.67;9.02;;;14.30;99.90;;;;;;5072877;28;20098;-59
2022/06/22 05:15:34;;;;;;;18.13;9.35;;;14.30;99.90;;;;;;5079572;28;20052;-59
2022/06/22 05:18:02;;;;;;;18.98;11.35;;;14.40;99.90;;;;;;5067877;28;20131;-58
2022/06/22 05:20:41;;;;;;;20.38;10.10;;;14.40;99.90;;;;;;5084039;28;20040;-59
2022/06/22 05:23:08;;;;;;;23.80;10.48;;;14.40;99.90;;;;;;5075671;28;20474;-59
2022/06/22 05:25:34;;;;;;;15.65;8.88;;;14.50;99.90;;;;;;5074639;28;20114;-59
2022/06/22 05:28:08;;;;;;;16.60;9.38;;;14.50;99.90;;;;;;5076006;28;20500;-59
2022/06/22 05:30:43;;;;;;;13.18;9.20;;;14.60;99.90;;;;;;5083228;28;20091;-59
2022/06/22 05:33:15;;;;;;;14.25;8.55;;;14.60;99.90;;;;;;5057393;28;20048;-58
2022/06/22 05:35:54;;;;;;;13.07;8.40;;;14.70;99.90;;;;;;5062768;28;20563;-58
2022/06/22 05:38:21;;;;;;;15.88;9.32;;;14.80;99.90;;;;;;5072503;28;20052;-59
2022/06/22 05:40:47;;;;;;;15.45;9.70;;;14.90;99.90;;;;;;5082728;28;20075;-60
2022/06/22 05:43:14;;;;;;;20.02;10.40;;;15.00;99.90;;;;;;5082918;28;20072;-59
2022/06/22 05:45:54;;;;;;;16.23;10.85;;;15.00;99.90;;;;;;5077435;28;20408;-58
2022/06/22 05:48:25;;;;;;;27.38;10.55;;;14.90;99.90;;;;;;5082335;28;20037;-59
2022/06/22 05:51:04;;;;;;;17.52;10.98;;;14.90;99.90;;;;;;5077951;28;20087;-59
2022/06/22 05:53:51;;;;;;;21.25;10.98;;;15.00;99.90;;;;;;5068422;28;20136;-58
2022/06/22 05:56:39;;;;;;;17.42;10.25;;;15.10;99.90;;;;;;5065005;28;20456;-59
2022/06/22 05:59:08;;;;;;;30.55;14.07;;;15.10;99.90;;;;;;5069331;28;20079;-59
2022/06/22 06:01:50;;;;;;;19.27;10.95;;;15.30;99.90;;;;;;5076881;28;20177;-60
2022/06/22 06:04:32;;;;;;;24.90;12.18;;;15.40;99.90;;;;;;5081903;28;20084;-60
2022/06/22 06:07:11;;;;;;;29.48;13.32;;;15.50;99.90;;;;;;5072378;28;20427;-59
2022/06/22 06:09:37;;;;;;;31.42;14.00;;;15.60;99.90;;;;;;5076997;28;20494;-59
2022/06/22 06:12:32;;;;;;;26.00;14.35;;;15.70;99.90;;;;;;5078264;28;20043;-59
2022/06/22 06:15:02;;;;;;;20.60;13.10;;;15.90;99.90;;;;;;5068890;28;20465;-59
2022/06/22 06:17:41;;;;;;;26.08;14.70;;;16.00;99.90;;;;;;5078170;28;20055;-59
2022/06/22 06:20:17;;;;;;;20.02;13.55;;;16.10;99.90;;;;;;5069225;28;20036;-59
2022/06/22 06:22:44;;;;;;;25.15;13.65;;;16.20;99.90;;;;;;5078995;28;20131;-60
2022/06/22 06:28:04;;;;;;;26.45;13.25;;;16.30;99.90;;;;;;5067983;28;20040;-60
2022/06/22 06:30:38;;;;;;;19.30;11.93;;;16.40;99.90;;;;;;5064766;28;20052;-60
2022/06/22 06:33:15;;;;;;;21.65;11.90;;;16.50;99.90;;;;;;5072567;28;20491;-59
2022/06/22 06:36:19;;;;;;;21.60;11.15;;;16.60;99.90;;;;;;5074547;28;20044;-59
2022/06/22 06:39:06;;;;;;;28.15;13.25;;;16.70;99.90;;;;;;5084310;28;20040;-59
2022/06/22 06:41:38;;;;;;;21.38;11.15;;;16.70;99.90;;;;;;5067619;28;20052;-59
2022/06/22 06:44:25;;;;;;;22.50;12.15;;;16.80;99.90;;;;;;5073661;28;20051;-57
2022/06/22 06:46:53;;;;;;;17.73;9.93;;;16.90;99.90;;;;;;5080046;28;20052;-58
2022/06/22 06:50:12;;;;;;;19.50;11.20;;;17.00;99.90;;;;;;5074785;28;20573;-58
2022/06/22 06:52:45;;;;;;;20.00;9.80;;;17.10;99.90;;;;;;5068777;28;20135;-58
2022/06/22 06:55:30;;;;;;;21.52;10.88;;;17.10;99.90;;;;;;5076123;28;20098;-59
2022/06/22 06:58:03;;;;;;;16.38;10.50;;;17.20;99.90;;;;;;5068043;28;20072;-57
2022/06/22 07:00:30;;;;;;;19.75;12.38;;;17.20;99.90;;;;;;5079521;28;20138;-58
2022/06/22 07:02:57;;;;;;;16.25;10.05;;;17.20;99.90;;;;;;5069576;28;20079;-57
2022/06/22 07:05:24;;;;;;;27.92;10.80;;;17.20;99.90;;;;;;5072983;28;20123;-59
2022/06/22 07:07:56;;;;;;;19.63;9.88;;;17.30;99.90;;;;;;5065837;28;20483;-59
2022/06/22 07:10:36;;;;;;;19.83;9.77;;;17.40;99.90;;;;;;5074513;28;20048;-58
2022/06/22 07:13:12;;;;;;;18.25;10.82;;;17.40;99.90;;;;;;5079614;28;20352;-55
2022/06/22 07:15:40;;;;;;;21.73;10.20;;;17.40;99.90;;;;;;5075036;28;20048;-58
2022/06/22 07:18:30;;;;;;;20.33;9.32;;;17.50;99.90;;;;;;5077590;28;20045;-58
2022/06/22 07:21:23;;;;;;;17.10;9.70;;;17.60;99.90;;;;;;5078986;28;20044;-58
2022/06/22 07:23:51;;;;;;;22.67;9.65;;;17.60;99.90;;;;;;5069112;28;20083;-58
2022/06/22 07:26:27;;;;;;;15.60;8.57;;;17.70;99.90;;;;;;5080014;28;20072;-58
2022/06/22 07:29:00;;;;;;;17.13;8.35;;;17.70;99.90;;;;;;5069339;28;20141;-57
2022/06/22 07:31:33;;;;;;;13.70;8.25;;;17.80;99.90;;;;;;5080238;28;20063;-58
2022/06/22 07:34:25;;;;;;;12.52;7.00;;;17.80;99.90;;;;;;5071133;28;20044;-58
2022/06/22 07:37:00;;;;;;;15.90;7.15;;;17.90;99.90;;;;;;5080745;28;20044;-58
2022/06/22 07:39:38;;;;;;;15.25;7.30;;;18.00;99.90;;;;;;5074788;28;20079;-59
2022/06/22 07:42:06;;;;;;;12.20;7.43;;;18.00;99.90;;;;;;5068657;28;20169;-58
2022/06/22 07:44:33;;;;;;;16.95;8.68;;;18.10;99.90;;;;;;5083750;28;20124;-60
2022/06/22 07:47:08;;;;;;;16.23;8.18;;;18.20;99.90;;;;;;5071409;28;20175;-59
2022/06/22 07:50:00;;;;;;;8.13;6.18;;;18.30;99.90;;;;;;5061665;28;20110;-58
2022/06/22 07:52:32;;;;;;;14.38;6.85;;;18.30;99.90;;;;;;5083586;28;20800;-58
2022/06/22 07:55:06;;;;;;;11.23;5.95;;;18.40;99.90;;;;;;5060865;28;20079;-59
2022/06/22 07:58:01;;;;;;;21.98;6.63;;;18.40;99.90;;;;;;4753131;27;10000455;-59
2022/06/22 08:00:28;;;;;;;12.35;5.80;;;18.50;99.90;;;;;;5072607;28;20331;-59
2022/06/22 08:03:10;;;;;;;10.55;5.35;;;18.60;99.90;;;;;;5068252;28;20133;-59
2022/06/22 08:05:38;;;;;;;10.00;5.85;;;18.60;99.90;;;;;;5075117;28;20352;-58
2022/06/22 08:08:52;;;;;;;17.98;5.35;;;18.70;99.90;;;;;;5066428;28;20086;-58
2022/06/22 08:11:25;;;;;;;10.82;4.53;;;18.80;99.90;;;;;;5053348;28;20445;-59
2022/06/22 08:14:02;;;;;;;4.95;3.72;;;18.90;99.90;;;;;;5068188;28;20491;-59
2022/06/22 08:16:54;;;;;;;6.15;3.08;;;18.90;99.00;;;;;;5072882;28;20457;-59
2022/06/22 08:19:21;;;;;;;13.75;4.43;;;19.00;95.90;;;;;;5100830;27;20075;-59
2022/06/22 08:21:49;;;;;;;10.07;4.65;;;19.00;97.90;;;;;;5073393;28;20123;-59
2022/06/22 08:24:18;;;;;;;6.97;2.90;;;19.10;97.20;;;;;;5075406;28;20112;-59
2022/06/22 08:26:45;;;;;;;7.78;3.53;;;19.10;96.80;;;;;;5066025;28;20052;-59
2022/06/22 08:29:13;;;;;;;9.73;3.90;;;19.20;96.70;;;;;;5082409;28;20083;-59
2022/06/22 08:31:46;;;;;;;11.68;3.53;;;19.30;96.80;;;;;;5081972;28;20100;-59
2022/06/22 08:34:36;;;;;;;9.35;3.65;;;19.40;96.20;;;;;;5082628;28;20286;-59
2022/06/22 08:37:06;;;;;;;10.52;3.88;;;19.50;96.10;;;;;;5080592;28;20055;-58
2022/06/22 08:39:48;;;;;;;13.60;4.70;;;19.60;95.50;;;;;;5072516;28;20135;-59
2022/06/22 08:42:38;;;;;;;10.43;4.03;;;19.70;93.70;;;;;;5083301;28;20346;-59
2022/06/22 08:45:27;;;;;;;8.63;3.88;;;19.70;92.10;;;;;;5081206;28;20048;-59
2022/06/22 08:48:13;;;;;;;9.02;4.22;;;19.80;94.20;;;;;;5086898;28;20460;-59
2022/06/22 08:50:45;;;;;;;13.10;4.22;;;19.80;93.60;;;;;;5072243;28;20049;-59
2022/06/22 08:53:19;;;;;;;11.77;4.80;;;19.90;94.00;;;;;;5083751;28;20396;-59
2022/06/22 08:56:13;;;;;;;8.90;5.07;;;19.90;95.10;;;;;;5071908;28;20059;-59
2022/06/22 08:58:54;;;;;;;21.27;9.07;;;20.00;94.40;;;;;;5085555;28;20084;-60
2022/06/22 09:01:56;;;;;;;13.07;5.07;;;20.10;94.60;;;;;;5082730;28;20446;-58
2022/06/22 09:04:35;;;;;;;6.88;4.00;;;20.20;94.20;;;;;;5096278;27;20309;-60
2022/06/22 09:07:24;;;;;;;16.05;3.60;;;20.30;93.10;;;;;;5068580;28;20144;-58
2022/06/22 09:10:00;;;;;;;9.15;4.20;;;20.40;91.40;;;;;;5086303;28;20442;-59
2022/06/22 09:12:50;;;;;;;8.77;3.22;;;20.40;93.20;;;;;;5075118;28;20044;-58
2022/06/22 09:15:26;;;;;;;6.75;3.00;;;20.50;91.10;;;;;;5074088;28;20045;-59
2022/06/22 09:18:26;;;;;;;10.43;2.97;;;20.50;92.60;;;;;;5078397;28;20083;-59
2022/06/22 09:21:15;;;;;;;8.43;3.22;;;20.60;90.30;;;;;;5078896;28;20453;-61
2022/06/22 09:24:19;;;;;;;8.85;2.78;;;20.70;91.80;;;;;;5075709;28;20049;-59
2022/06/22 09:26:52;;;;;;;4.22;2.70;;;20.80;90.70;;;;;;5072866;28;20048;-58
2022/06/22 09:29:56;;;;;;;10.75;2.55;;;20.90;91.00;;;;;;5083882;28;20481;-61
2022/06/22 09:32:31;;;;;;;6.55;2.30;;;21.00;90.10;;;;;;5084283;28;20051;-63
2022/06/22 09:35:07;;;;;;;7.68;2.55;;;21.10;90.30;;;;;;5078234;28;20068;-59
2022/06/22 09:37:41;;;;;;;8.80;2.65;;;21.10;90.30;;;;;;5083038;28;20143;-59
2022/06/22 09:40:08;;;;;;;3.08;1.40;;;21.20;89.10;;;;;;5075296;28;20113;-58
2022/06/22 09:42:49;;;;;;;6.50;1.65;;;21.30;85.30;;;;;;5084767;28;20136;-58
2022/06/22 09:45:32;;;;;;;5.95;1.40;;;21.40;83.50;;;;;;5076024;28;20105;-57
2022/06/22 09:48:30;;;;;;;3.25;1.33;;;21.60;78.70;;;;;;5085802;28;20683;-59
2022/06/22 09:51:08;;;;;;;7.30;1.80;;;21.80;74.30;;;;;;5080771;28;20102;-58
2022/06/22 09:57:24;;;;;;;9.02;1.83;;;22.00;75.20;;;;;;5071348;28;20040;-57
2022/06/22 10:00:17;;;;;;;6.55;1.70;;;22.10;76.70;;;;;;5079114;28;20473;-61
2022/06/22 10:03:04;;;;;;;8.57;2.58;;;22.20;81.10;;;;;;5076836;28;20107;-60
2022/06/22 10:05:41;;;;;;;12.02;2.35;;;22.30;81.10;;;;;;5084701;28;20060;-59
2022/06/22 10:08:23;;;;;;;4.30;2.00;;;22.40;82.50;;;;;;5083355;28;20090;-59
2022/06/22 10:11:17;;;;;;;7.07;1.88;;;22.60;80.80;;;;;;5085935;28;20125;-60
2022/06/22 10:14:29;;;;;;;6.85;2.38;;;22.70;80.40;;;;;;5085499;28;20068;-59
2022/06/22 10:16:58;;;;;;;10.98;1.75;;;23.10;78.80;;;;;;5071242;28;20048;-59
2022/06/22 10:19:41;;;;;;;5.18;1.65;;;23.40;79.60;;;;;;5082863;28;20271;-58
2022/06/22 10:22:08;;;;;;;8.50;2.42;;;23.70;75.80;;;;;;5077480;28;20138;-59
2022/06/22 10:24:35;;;;;;;3.00;1.23;;;24.10;78.20;;;;;;5085029;28;20086;-60
2022/06/22 10:27:19;;;;;;;4.43;1.75;;;24.40;77.30;;;;;;5086160;28;20125;-60
2022/06/22 10:30:19;;;;;;;6.63;1.73;;;24.60;74.70;;;;;;5070736;28;20448;-60
2022/06/22 10:33:28;;;;;;;7.40;1.35;;;24.90;73.10;;;;;;5080346;28;20048;-56
2022/06/22 10:36:13;;;;;;;3.33;1.10;;;25.20;67.70;;;;;;5011910;28;20107;-58
2022/06/22 10:39:07;;;;;;;4.60;1.27;;;25.30;65.50;;;;;;5001583;28;20104;-59
2022/06/22 10:45:09;;;;;;;10.07;1.52;;;25.40;63.90;;;;;;5073608;28;20041;-59
2022/06/22 10:48:04;;;;;;;2.00;0.85;;;25.60;60.50;;;;;;5078185;28;20078;-59
2022/06/22 10:50:58;;;;;;;6.88;1.67;;;25.70;60.20;;;;;;5082764;28;20090;-58
2022/06/22 10:53:49;;;;;;;6.43;1.58;;;25.70;60.50;;;;;;5085177;28;20568;-58
2022/06/22 10:56:20;;;;;;;6.13;1.38;;;25.90;60.20;;;;;;5077435;28;20040;-59
2022/06/22 10:58:53;;;;;;;7.95;2.03;;;25.80;63.00;;;;;;5079678;28;21015;-58
2022/06/22 11:01:26;;;;;;;4.53;0.90;;;25.50;59.70;;;;;;5075956;28;20119;-58
2022/06/22 11:04:20;;;;;;;3.35;0.82;;;25.30;59.70;;;;;;5074404;28;20048;-58
2022/06/22 11:07:22;;;;;;;8.32;1.33;;;24.90;56.70;;;;;;5081918;28;20131;-59
2022/06/22 11:09:55;;;;;;;5.38;1.50;;;24.60;57.80;;;;;;4727541;27;10000690;-59
2022/06/22 11:12:34;;;;;;;;;;;24.50;60.40;;;;;;5088449;28;20044;-60
2022/06/22 11:15:29;;;;;;;6.35;1.60;;;24.30;59.50;;;;;;5082738;28;19928;-58
2022/06/22 11:18:20;;;;;;;20.50;5.30;;;24.20;62.20;;;;;;5067950;28;20127;-58
2022/06/22 11:20:59;;;;;;;25.77;3.83;;;24.10;62.80;;;;;;5084244;28;20066;-59
2022/06/22 11:23:44;;;;;;;6.63;1.23;;;24.10;63.30;;;;;;5079647;28;20117;-59
2022/06/22 11:32:11;;;;;;;16.40;1.90;;;24.00;67.00;;;;;;5074475;28;20499;-58
2022/06/22 11:35:17;;;;;;;6.85;1.90;;;23.90;68.00;;;;;;5083180;28;20040;-59
2022/06/22 11:38:02;;;;;;;6.18;1.65;;;23.80;67.80;;;;;;5053307;28;20076;-59
2022/06/22 11:41:00;;;;;;;7.20;1.45;;;23.90;69.00;;;;;;5091160;28;20087;-59
2022/06/22 11:43:42;;;;;;;9.00;1.60;;;24.00;68.20;;;;;;5075442;28;20508;-59
2022/06/22 11:46:15;;;;;;;7.80;1.50;;;23.90;69.70;;;;;;5079275;28;20421;-59
2022/06/22 11:49:01;;;;;;;3.25;1.08;;;23.90;69.70;;;;;;5082947;28;20385;-59
2022/06/22 11:51:49;;;;;;;7.22;1.63;;;23.90;69.40;;;;;;5075307;28;20052;-59
2022/06/22 11:54:47;;;;;;;5.30;1.42;;;23.90;68.00;;;;;;5080903;28;20068;-59
2022/06/22 11:57:42;;;;;;;5.13;1.50;;;24.00;68.50;;;;;;5084710;28;20071;-59
2022/06/22 12:00:30;;;;;;;4.60;2.35;;;24.10;68.20;;;;;;5080160;28;20139;-59
2022/06/22 12:03:48;;;;;;;5.70;1.35;;;24.10;68.30;;;;;;5072714;28;20041;-59
2022/06/22 12:06:17;;;;;;;8.45;1.70;;;24.10;68.40;;;;;;5056886;28;20052;-59
2022/06/22 12:09:12;;;;;;;9.50;2.38;;;24.10;69.00;;;;;;5078709;28;20449;-59
2022/06/22 12:12:20;;;;;;;7.43;1.80;;;24.20;68.50;;;;;;5073952;28;20083;-60
2022/06/22 12:15:04;;;;;;;8.05;1.70;;;24.30;68.00;;;;;;5006249;28;20505;-60
2022/06/22 12:17:58;;;;;;;6.47;1.90;;;24.30;69.00;;;;;;5070563;28;20096;-58
2022/06/22 12:20:32;;;;;;;8.95;1.70;;;24.20;68.20;;;;;;5073912;28;20438;-58
2022/06/22 12:23:36;;;;;;;11.68;1.80;;;24.20;68.30;;;;;;5083379;28;20060;-58
2022/06/22 12:26:21;;;;;;;5.45;1.17;;;24.20;68.20;;;;;;5080828;28;20139;-59
2022/06/22 12:28:59;;;;;;;4.90;1.48;;;24.20;69.20;;;;;;5084799;28;20080;-59
2022/06/22 12:31:30;;;;;;;4.75;1.20;;;24.30;68.90;;;;;;5082293;28;20549;-59
2022/06/22 12:34:25;;;;;;;6.68;1.55;;;24.40;67.70;;;;;;5071177;28;20044;-59
2022/06/22 12:36:58;;;;;;;9.95;1.75;;;24.50;69.20;;;;;;5085800;28;20118;-59
2022/06/22 12:39:51;;;;;;;6.03;1.63;;;24.60;67.70;;;;;;5077170;28;20062;-59
2022/06/22 12:42:24;;;;;;;4.90;1.77;;;24.70;67.70;;;;;;5062856;28;20131;-59
2022/06/22 12:44:54;;;;;;;;;;;24.70;66.80;;;;;;5080201;28;20087;-59
2022/06/22 12:48:02;;;;;;;4.05;1.30;;;24.70;64.80;;;;;;5073463;28;19928;-59
2022/06/22 12:50:47;;;;;;;4.32;1.40;;;24.70;66.10;;;;;;5073744;28;20072;-59
2022/06/22 12:53:35;;;;;;;6.35;2.00;;;24.70;64.80;;;;;;5078575;28;20131;-60
2022/06/22 12:56:15;;;;;;;7.35;1.50;;;24.70;65.40;;;;;;5083863;28;20238;-59
2022/06/22 12:58:53;;;;;;;17.73;2.75;;;24.70;66.90;;;;;;5068991;28;20665;-59
2022/06/22 13:01:20;;;;;;;2.75;1.10;;;24.90;65.90;;;;;;5084181;28;20055;-59
2022/06/22 13:03:58;;;;;;;6.28;1.70;;;25.00;66.70;;;;;;5078964;28;20645;-59
2022/06/22 13:06:25;;;;;;;6.18;2.05;;;25.00;66.30;;;;;;5083985;28;20064;-59
2022/06/22 13:08:52;;;;;;;16.02;1.85;;;25.10;66.90;;;;;;5079471;28;20113;-59
2022/06/22 13:11:21;;;;;;;7.50;2.28;;;25.20;65.50;;;;;;5076114;28;20127;-60
2022/06/22 13:13:54;;;;;;;4.07;1.27;;;25.10;65.70;;;;;;5078802;28;20083;-59
2022/06/22 13:16:28;;;;;;;6.63;2.20;;;25.20;65.60;;;;;;5079500;28;20119;-59
2022/06/22 13:19:08;;;;;;;6.65;1.23;;;25.30;65.00;;;;;;5075293;28;20499;-59
2022/06/22 13:21:45;;;;;;;6.65;1.95;;;25.40;64.90;;;;;;5074921;28;20054;-61
2022/06/22 13:24:32;;;;;;;6.75;1.30;;;25.40;63.50;;;;;;5082984;28;20463;-59
2022/06/22 13:27:36;;;;;;;2.35;1.40;;;25.30;63.80;;;;;;5074561;28;20085;-58
2022/06/22 13:30:42;;;;;;;7.00;1.55;;;25.30;64.90;;;;;;5074922;28;20088;-59
2022/06/22 13:33:27;;;;;;;6.63;1.33;;;25.30;64.70;;;;;;5058685;28;20382;-59
2022/06/22 13:36:19;;;;;;;5.28;1.30;;;25.30;64.20;;;;;;5081571;28;20087;-59
2022/06/22 13:38:57;;;;;;;6.88;1.80;;;25.40;64.70;;;;;;5050411;28;20171;-59
2022/06/22 13:41:49;;;;;;;4.85;1.50;;;25.50;63.50;;;;;;5077406;28;20591;-58
2022/06/22 13:44:23;;;;;;;7.38;1.48;;;25.50;64.20;;;;;;5083037;28;20079;-59
2022/06/22 13:47:12;;;;;;;13.80;1.90;;;25.50;65.50;;;;;;5078107;28;20052;-59
2022/06/22 13:50:16;;;;;;;11.80;1.70;;;25.50;64.60;;;;;;5081284;28;20127;-58
2022/06/22 13:52:44;;;;;;;5.70;1.27;;;25.60;65.00;;;;;;5075539;28;20174;-59
2022/06/22 13:55:23;;;;;;;4.05;1.65;;;25.70;64.60;;;;;;5078163;28;20037;-58
2022/06/22 13:57:52;;;;;;;7.43;1.48;;;25.80;64.40;;;;;;5080689;28;20084;-58
2022/06/22 14:00:25;;;;;;;4.38;1.20;;;26.00;64.90;;;;;;5073859;28;20055;-58
2022/06/22 14:02:53;;;;;;;3.80;1.20;;;26.10;63.80;;;;;;5084720;28;20099;-59